sensor_id;sensor_type;location;lat;lon;timestamp;pressure;altitude;pressure_sealevel;temperature;humidity
58955;BME280;45815;52.334;5.024;2023-03-13T00:01:22;100139.25;;;8.60;100.00
58955;BME280;45815;52.334;5.024;2023-03-13T00:03:48;100129.72;;;8.65;100.00
58955;BME280;45815;52.334;5.024;2023-03-13T00:06:14;100128.06;;;8.71;100.00
58955;BME280;45815;52.334;5.024;2023-03-13T00:08:40;100115.81;;;8.68;100.00
58955;BME280;45815;52.334;5.024;2023-03-13T00:11:08;100104.44;;;8.66;100.00
58955;BME280;45815;52.334;5.024;2023-03-13T00:13:34;100116.78;;;8.75;100.00
58955;BME280;45815;52.334;5.024;2023-03-13T00:16:01;100108.09;;;8.76;100.00
58955;BME280;45815;52.334;5.024;2023-03-13T00:18:27;100099.34;;;8.74;100.00
58955;BME280;45815;52.334;5.024;2023-03-13T00:21:03;100091.56;;;8.80;100.00
58955;BME280;45815;52.334;5.024;2023-03-13T00:23:30;100088.09;;;8.81;100.00
58955;BME280;45815;52.334;5.024;2023-03-13T00:26:00;100070.66;;;8.81;100.00
58955;BME280;45815;52.334;5.024;2023-03-13T00:28:30;100064.56;;;8.82;100.00
58955;BME280;45815;52.334;5.024;2023-03-13T00:31:09;100061.09;;;8.83;100.00
58955;BME280;45815;52.334;5.024;2023-03-13T00:33:35;100053.22;;;8.80;100.00
58955;BME280;45815;52.334;5.024;2023-03-13T00:36:04;100047.13;;;8.84;100.00
58955;BME280;45815;52.334;5.024;2023-03-13T00:38:31;100031.44;;;8.83;100.00
58955;BME280;45815;52.334;5.024;2023-03-13T00:41:05;100028.81;;;8.83;100.00
58955;BME280;45815;52.334;5.024;2023-03-13T00:43:31;100012.13;;;8.75;100.00
58955;BME280;45815;52.334;5.024;2023-03-13T00:45:59;100016.56;;;8.79;100.00
58955;BME280;45815;52.334;5.024;2023-03-13T00:48:24;100007.81;;;8.80;100.00
58955;BME280;45815;52.334;5.024;2023-03-13T00:50:50;100003.50;;;8.80;100.00
58955;BME280;45815;52.334;5.024;2023-03-13T00:53:15;100002.66;;;8.83;100.00
58955;BME280;45815;52.334;5.024;2023-03-13T00:55:52;99992.19;;;8.83;100.00
58955;BME280;45815;52.334;5.024;2023-03-13T00:58:17;99979.09;;;8.84;100.00
58955;BME280;45815;52.334;5.024;2023-03-13T01:00:43;99981.78;;;8.89;100.00
58955;BME280;45815;52.334;5.024;2023-03-13T01:03:08;99985.28;;;8.91;100.00
58955;BME280;45815;52.334;5.024;2023-03-13T01:05:34;99976.50;;;8.86;100.00
58955;BME280;45815;52.334;5.024;2023-03-13T01:07:59;99980.91;;;8.88;100.00
58955;BME280;45815;52.334;5.024;2023-03-13T01:10:24;99969.59;;;8.91;100.00
58955;BME280;45815;52.334;5.024;2023-03-13T01:12:50;99966.13;;;8.92;100.00
58955;BME280;45815;52.334;5.024;2023-03-13T01:15:15;99953.91;;;8.94;100.00
58955;BME280;45815;52.334;5.024;2023-03-13T01:17:44;99947.88;;;8.97;100.00
58955;BME280;45815;52.334;5.024;2023-03-13T01:20:11;99933.88;;;8.96;100.00
58955;BME280;45815;52.334;5.024;2023-03-13T01:22:37;99930.41;;;8.99;100.00
58955;BME280;45815;52.334;5.024;2023-03-13T01:25:03;99912.09;;;8.97;100.00
58955;BME280;45815;52.334;5.024;2023-03-13T01:27:29;99908.63;;;9.00;100.00
58955;BME280;45815;52.334;5.024;2023-03-13T01:29:55;99908.69;;;9.04;100.00
58955;BME280;45815;52.334;5.024;2023-03-13T01:32:21;99906.03;;;9.03;100.00
58955;BME280;45815;52.334;5.024;2023-03-13T01:34:46;99908.72;;;9.11;100.00
58955;BME280;45815;52.334;5.024;2023-03-13T01:37:12;99893.88;;;9.09;100.00
58955;BME280;45815;52.334;5.024;2023-03-13T01:40:03;99888.66;;;9.13;100.00
58955;BME280;45815;52.334;5.024;2023-03-13T01:42:28;99889.56;;;9.15;100.00
58955;BME280;45815;52.334;5.024;2023-03-13T01:44:56;99886.13;;;9.19;100.00
58955;BME280;45815;52.334;5.024;2023-03-13T01:47:23;99875.63;;;9.16;100.00
58955;BME280;45815;52.334;5.024;2023-03-13T01:50:09;99866.91;;;9.17;100.00
58955;BME280;45815;52.334;5.024;2023-03-13T01:52:58;99859.97;;;9.22;100.00
58955;BME280;45815;52.334;5.024;2023-03-13T01:55:28;99866.13;;;9.28;100.00
58955;BME280;45815;52.334;5.024;2023-03-13T01:57:54;99851.28;;;9.29;100.00
58955;BME280;45815;52.334;5.024;2023-03-13T02:00:23;99832.13;;;9.33;100.00
58955;BME280;45815;52.334;5.024;2023-03-13T02:02:54;99816.34;;;9.27;100.00
58955;BME280;45815;52.334;5.024;2023-03-13T02:05:22;99830.41;;;9.35;100.00
58955;BME280;45815;52.334;5.024;2023-03-13T02:07:54;99818.22;;;9.40;100.00
58955;BME280;45815;52.334;5.024;2023-03-13T02:10:22;99806.00;;;9.45;100.00
58955;BME280;45815;52.334;5.024;2023-03-13T02:12:49;99803.41;;;9.47;100.00
58955;BME280;45815;52.334;5.024;2023-03-13T02:15:19;99814.81;;;9.54;100.00
58955;BME280;45815;52.334;5.024;2023-03-13T02:17:46;99793.00;;;9.56;100.00
58955;BME280;45815;52.334;5.024;2023-03-13T02:20:14;99794.78;;;9.63;100.00
58955;BME280;45815;52.334;5.024;2023-03-13T02:25:51;99787.84;;;9.73;100.00
58955;BME280;45815;52.334;5.024;2023-03-13T02:28:28;99776.53;;;9.77;100.00
58955;BME280;45815;52.334;5.024;2023-03-13T02:30:58;99781.78;;;9.80;100.00
58955;BME280;45815;52.334;5.024;2023-03-13T02:33:35;99766.94;;;9.82;100.00
58955;BME280;45815;52.334;5.024;2023-03-13T02:36:02;99762.59;;;9.87;100.00
58955;BME280;45815;52.334;5.024;2023-03-13T02:38:32;99774.81;;;9.87;100.00
58955;BME280;45815;52.334;5.024;2023-03-13T02:41:00;99766.09;;;9.89;100.00
58955;BME280;45815;52.334;5.024;2023-03-13T02:43:32;99760.84;;;9.92;100.00
58955;BME280;45815;52.334;5.024;2023-03-13T02:48:45;99752.16;;;9.97;100.00
58955;BME280;45815;52.334;5.024;2023-03-13T02:51:32;99754.78;;;9.98;100.00
58955;BME280;45815;52.334;5.024;2023-03-13T02:54:13;99752.19;;;10.03;100.00
58955;BME280;45815;52.334;5.024;2023-03-13T02:56:42;99760.94;;;10.05;100.00
58955;BME280;45815;52.334;5.024;2023-03-13T02:59:09;99765.31;;;10.07;100.00
58955;BME280;45815;52.334;5.024;2023-03-13T03:01:38;99761.84;;;10.16;100.00
58955;BME280;45815;52.334;5.024;2023-03-13T03:04:03;99768.84;;;10.19;100.00
58955;BME280;45815;52.334;5.024;2023-03-13T03:06:29;99766.22;;;10.22;100.00
58955;BME280;45815;52.334;5.024;2023-03-13T03:08:55;99764.53;;;10.28;100.00
58955;BME280;45815;52.334;5.024;2023-03-13T03:11:21;99756.66;;;10.31;100.00
58955;BME280;45815;52.334;5.024;2023-03-13T03:13:51;99770.66;;;10.37;100.00
58955;BME280;45815;52.334;5.024;2023-03-13T03:16:17;99759.31;;;10.41;100.00
58955;BME280;45815;52.334;5.024;2023-03-13T03:18:43;99763.69;;;10.43;100.00
58955;BME280;45815;52.334;5.024;2023-03-13T03:21:08;99745.34;;;10.48;100.00
58955;BME280;45815;52.334;5.024;2023-03-13T03:23:37;99755.84;;;10.54;100.00
58955;BME280;45815;52.334;5.024;2023-03-13T03:26:04;99746.25;;;10.61;100.00
58955;BME280;45815;52.334;5.024;2023-03-13T03:28:30;99734.84;;;10.62;100.00
58955;BME280;45815;52.334;5.024;2023-03-13T03:31:03;99729.63;;;10.66;100.00
58955;BME280;45815;52.334;5.024;2023-03-13T03:33:28;99729.59;;;10.69;100.00
58955;BME280;45815;52.334;5.024;2023-03-13T03:35:59;99733.13;;;10.73;100.00
58955;BME280;45815;52.334;5.024;2023-03-13T03:38:24;99731.38;;;10.80;100.00
58955;BME280;45815;52.334;5.024;2023-03-13T03:40:50;99729.63;;;10.88;100.00
58955;BME280;45815;52.334;5.024;2023-03-13T03:43:15;99719.13;;;10.88;100.00
58955;BME280;45815;52.334;5.024;2023-03-13T03:45:41;99715.63;;;10.92;100.00
58955;BME280;45815;52.334;5.024;2023-03-13T03:48:06;99729.63;;;10.94;100.00
58955;BME280;45815;52.334;5.024;2023-03-13T03:50:32;99711.22;;;10.95;100.00
58955;BME280;45815;52.334;5.024;2023-03-13T03:52:59;99708.63;;;10.97;100.00
58955;BME280;45815;52.334;5.024;2023-03-13T03:55:25;99708.59;;;11.00;100.00
58955;BME280;45815;52.334;5.024;2023-03-13T03:57:51;99712.13;;;11.01;100.00
58955;BME280;45815;52.334;5.024;2023-03-13T04:00:29;99704.25;;;11.01;100.00
58955;BME280;45815;52.334;5.024;2023-03-13T04:02:55;99700.75;;;11.03;100.00
58955;BME280;45815;52.334;5.024;2023-03-13T04:05:21;99702.50;;;11.06;100.00
58955;BME280;45815;52.334;5.024;2023-03-13T04:07:47;99701.63;;;11.10;100.00
58955;BME280;45815;52.334;5.024;2023-03-13T04:10:12;99692.84;;;11.09;100.00
58955;BME280;45815;52.334;5.024;2023-03-13T04:12:42;99697.22;;;11.09;100.00
58955;BME280;45815;52.334;5.024;2023-03-13T04:15:08;99694.59;;;11.10;100.00
58955;BME280;45815;52.334;5.024;2023-03-13T04:17:35;99700.72;;;11.15;100.00
58955;BME280;45815;52.334;5.024;2023-03-13T04:20:01;99703.34;;;11.17;100.00
58955;BME280;45815;52.334;5.024;2023-03-13T04:22:28;99695.47;;;11.17;100.00
58955;BME280;45815;52.334;5.024;2023-03-13T04:24:56;99679.72;;;11.22;100.00
58955;BME280;45815;52.334;5.024;2023-03-13T04:27:22;99685.81;;;11.20;100.00
58955;BME280;45815;52.334;5.024;2023-03-13T04:29:49;99684.09;;;11.19;100.00
58955;BME280;45815;52.334;5.024;2023-03-13T04:32:41;99691.94;;;11.21;100.00
58955;BME280;45815;52.334;5.024;2023-03-13T04:35:25;99686.69;;;11.24;100.00
58955;BME280;45815;52.334;5.024;2023-03-13T04:38:16;99685.81;;;11.20;100.00
58955;BME280;45815;52.334;5.024;2023-03-13T04:40:53;99694.56;;;11.26;100.00
58955;BME280;45815;52.334;5.024;2023-03-13T04:43:41;99695.47;;;11.26;100.00
58955;BME280;45815;52.334;5.024;2023-03-13T04:46:20;99679.69;;;11.26;100.00
58955;BME280;45815;52.334;5.024;2023-03-13T04:49:04;99670.06;;;11.20;100.00
58955;BME280;45815;52.334;5.024;2023-03-13T04:51:29;99691.06;;;11.22;100.00
58955;BME280;45815;52.334;5.024;2023-03-13T04:54:27;99679.69;;;11.25;100.00
58955;BME280;45815;52.334;5.024;2023-03-13T04:57:05;99670.91;;;11.27;100.00
58955;BME280;45815;52.334;5.024;2023-03-13T04:59:42;99667.41;;;11.25;100.00
58955;BME280;45815;52.334;5.024;2023-03-13T05:02:35;99669.19;;;11.26;100.00
58955;BME280;45815;52.334;5.024;2023-03-13T05:05:24;99663.03;;;11.30;100.00
58955;BME280;45815;52.334;5.024;2023-03-13T05:08:02;99659.53;;;11.36;100.00
58955;BME280;45815;52.334;5.024;2023-03-13T05:11:03;99646.34;;;11.37;100.00
58955;BME280;45815;52.334;5.024;2023-03-13T05:13:56;99654.22;;;11.42;100.00
58955;BME280;45815;52.334;5.024;2023-03-13T05:16:42;99651.63;;;11.45;100.00
58955;BME280;45815;52.334;5.024;2023-03-13T05:19:26;99621.81;;;11.46;100.00
58955;BME280;45815;52.334;5.024;2023-03-13T05:22:10;99627.03;;;11.49;100.00
58955;BME280;45815;52.334;5.024;2023-03-13T05:25:14;99631.41;;;11.56;100.00
58955;BME280;45815;52.334;5.024;2023-03-13T05:27:52;99626.16;;;11.59;100.00
58955;BME280;45815;52.334;5.024;2023-03-13T05:30:56;99611.22;;;11.63;100.00
58955;BME280;45815;52.334;5.024;2023-03-13T05:33:36;99619.94;;;11.68;100.00
58955;BME280;45815;52.334;5.024;2023-03-13T05:36:24;99612.09;;;11.67;100.00
58955;BME280;45815;52.334;5.024;2023-03-13T05:39:25;99596.31;;;11.67;100.00
58955;BME280;45815;52.334;5.024;2023-03-13T05:41:59;99596.31;;;11.67;100.00
58955;BME280;45815;52.334;5.024;2023-03-13T05:44:44;99599.81;;;11.69;100.00
58955;BME280;45815;52.334;5.024;2023-03-13T05:47:28;99583.19;;;11.67;100.00
58955;BME280;45815;52.334;5.024;2023-03-13T05:50:11;99574.41;;;11.71;100.00
58955;BME280;45815;52.334;5.024;2023-03-13T05:52:57;99585.75;;;11.74;100.00
58955;BME280;45815;52.334;5.024;2023-03-13T05:55:42;99553.41;;;11.66;100.00
58955;BME280;45815;52.334;5.024;2023-03-13T05:58:28;99563.00;;;11.72;100.00
58955;BME280;45815;52.334;5.024;2023-03-13T06:01:09;99559.47;;;11.76;100.00
58955;BME280;45815;52.334;5.024;2023-03-13T06:03:50;99557.72;;;11.78;100.00
58955;BME280;45815;52.334;5.024;2023-03-13T06:06:17;99540.16;;;11.80;100.00
58955;BME280;45815;52.334;5.024;2023-03-13T06:08:51;99548.03;;;11.81;100.00
58955;BME280;45815;52.334;5.024;2023-03-13T06:11:17;99534.06;;;11.73;100.00
58955;BME280;45815;52.334;5.024;2023-03-13T06:13:43;99543.63;;;11.85;100.00
58955;BME280;45815;52.334;5.024;2023-03-13T06:16:21;99530.47;;;11.87;100.00
58955;BME280;45815;52.334;5.024;2023-03-13T06:18:47;99531.34;;;11.89;100.00
58955;BME280;45815;52.334;5.024;2023-03-13T06:21:12;99530.50;;;11.85;100.00
58955;BME280;45815;52.334;5.024;2023-03-13T06:23:38;99540.06;;;11.95;100.00
58955;BME280;45815;52.334;5.024;2023-03-13T06:26:03;99544.47;;;11.96;100.00
58955;BME280;45815;52.334;5.024;2023-03-13T06:28:29;99543.53;;;12.00;100.00
58955;BME280;45815;52.334;5.024;2023-03-13T06:31:00;99547.97;;;11.97;100.00
58955;BME280;45815;52.334;5.024;2023-03-13T06:33:25;99541.81;;;11.99;100.00
58955;BME280;45815;52.334;5.024;2023-03-13T06:35:50;99547.09;;;11.96;100.00
58955;BME280;45815;52.334;5.024;2023-03-13T06:38:16;99552.31;;;11.99;100.00
58955;BME280;45815;52.334;5.024;2023-03-13T06:40:41;99559.31;;;12.00;100.00
58955;BME280;45815;52.334;5.024;2023-03-13T06:43:07;99547.97;;;11.94;100.00
58955;BME280;45815;52.334;5.024;2023-03-13T06:45:34;99553.28;;;11.88;100.00
58955;BME280;45815;52.334;5.024;2023-03-13T06:48:00;99563.81;;;11.81;100.00
58955;BME280;45815;52.334;5.024;2023-03-13T06:50:26;99569.94;;;11.83;100.00
58955;BME280;45815;52.334;5.024;2023-03-13T06:52:51;99571.72;;;11.80;100.00
58955;BME280;45815;52.334;5.024;2023-03-13T06:55:17;99564.72;;;11.73;100.00
58955;BME280;45815;52.334;5.024;2023-03-13T06:57:42;99582.28;;;11.68;100.00
58955;BME280;45815;52.334;5.024;2023-03-13T07:00:09;99581.44;;;11.64;100.00
58955;BME280;45815;52.334;5.024;2023-03-13T07:02:35;99580.56;;;11.62;100.00
58955;BME280;45815;52.334;5.024;2023-03-13T07:05:01;99582.34;;;11.61;100.00
58955;BME280;45815;52.334;5.024;2023-03-13T07:07:30;99587.59;;;11.61;100.00
58955;BME280;45815;52.334;5.024;2023-03-13T07:09:57;99601.66;;;11.54;100.00
58955;BME280;45815;52.334;5.024;2023-03-13T07:12:23;99589.38;;;11.53;100.00
58955;BME280;45815;52.334;5.024;2023-03-13T07:14:48;99626.16;;;11.53;100.00
58955;BME280;45815;52.334;5.024;2023-03-13T07:17:13;99607.78;;;11.50;100.00
58955;BME280;45815;52.334;5.024;2023-03-13T07:19:39;99603.44;;;11.48;100.00
58955;BME280;45815;52.334;5.024;2023-03-13T07:22:04;99601.66;;;11.48;100.00
58955;BME280;45815;52.334;5.024;2023-03-13T07:24:30;99610.38;;;11.56;100.00
58955;BME280;45815;52.334;5.024;2023-03-13T07:26:56;99599.00;;;11.57;100.00
58955;BME280;45815;52.334;5.024;2023-03-13T07:29:21;99598.97;;;11.60;100.00
58955;BME280;45815;52.334;5.024;2023-03-13T07:31:46;99596.38;;;11.56;100.00
58955;BME280;45815;52.334;5.024;2023-03-13T07:34:12;99611.28;;;11.52;100.00
58955;BME280;45815;52.334;5.024;2023-03-13T07:36:37;99590.25;;;11.57;100.00
58955;BME280;45815;52.334;5.024;2023-03-13T07:39:04;99598.13;;;11.54;100.00
58955;BME280;45815;52.334;5.024;2023-03-13T07:41:29;99592.88;;;11.55;100.00
58955;BME280;45815;52.334;5.024;2023-03-13T07:43:55;99599.84;;;11.56;100.00
58955;BME280;45815;52.334;5.024;2023-03-13T07:46:21;99610.41;;;11.53;100.00
58955;BME280;45815;52.334;5.024;2023-03-13T07:48:47;99626.16;;;11.59;100.00
58955;BME280;45815;52.334;5.024;2023-03-13T07:51:15;99624.38;;;11.58;100.00
58955;BME280;45815;52.334;5.024;2023-03-13T07:53:42;99624.38;;;11.61;100.00
58955;BME280;45815;52.334;5.024;2023-03-13T07:56:15;99602.50;;;11.58;100.00
58955;BME280;45815;52.334;5.024;2023-03-13T07:58:42;99615.56;;;11.70;100.00
58955;BME280;45815;52.334;5.024;2023-03-13T08:03:34;99569.09;;;11.77;100.00
58955;BME280;45815;52.334;5.024;2023-03-13T08:06:03;99562.94;;;11.81;100.00
58955;BME280;45815;52.334;5.024;2023-03-13T08:08:29;99544.50;;;11.84;100.00
58955;BME280;45815;52.334;5.024;2023-03-13T08:11:03;99536.66;;;11.87;100.00
58955;BME280;45815;52.334;5.024;2023-03-13T08:13:29;99543.56;;;11.96;100.00
58955;BME280;45815;52.334;5.024;2023-03-13T08:16:13;99529.56;;;11.97;100.00
58955;BME280;45815;52.334;5.024;2023-03-13T08:18:43;99540.91;;;12.00;100.00
58955;BME280;45815;52.334;5.024;2023-03-13T08:21:11;99538.28;;;12.03;100.00
58955;BME280;45815;52.334;5.024;2023-03-13T08:23:37;99528.59;;;12.06;100.00
58955;BME280;45815;52.334;5.024;2023-03-13T08:26:11;99531.22;;;12.06;100.00
58955;BME280;45815;52.334;5.024;2023-03-13T08:28:37;99509.28;;;12.10;100.00
58955;BME280;45815;52.334;5.024;2023-03-13T08:31:17;99525.91;;;12.12;100.00
58955;BME280;45815;52.334;5.024;2023-03-13T08:33:44;99523.28;;;12.12;100.00
58955;BME280;45815;52.334;5.024;2023-03-13T08:36:14;99516.25;;;12.14;100.00
58955;BME280;45815;52.334;5.024;2023-03-13T08:38:41;99513.72;;;12.04;100.00
58955;BME280;45815;52.334;5.024;2023-03-13T08:41:09;99522.41;;;12.13;100.00
58955;BME280;45815;52.334;5.024;2023-03-13T08:43:34;99506.72;;;12.03;100.00
58955;BME280;45815;52.334;5.024;2023-03-13T08:46:00;99510.13;;;12.12;100.00
58955;BME280;45815;52.334;5.024;2023-03-13T08:48:25;99510.97;;;12.17;100.00
58955;BME280;45815;52.334;5.024;2023-03-13T08:51:10;99515.28;;;12.24;100.00
58955;BME280;45815;52.334;5.024;2023-03-13T08:53:37;99497.69;;;12.32;100.00
58955;BME280;45815;52.334;5.024;2023-03-13T08:56:03;99494.19;;;12.32;100.00
58955;BME280;45815;52.334;5.024;2023-03-13T08:58:30;99488.84;;;12.39;100.00
58955;BME280;45815;52.334;5.024;2023-03-13T09:01:04;99472.16;;;12.42;100.00
58955;BME280;45815;52.334;5.024;2023-03-13T09:03:30;99476.47;;;12.48;100.00
58955;BME280;45815;52.334;5.024;2023-03-13T09:05:57;99483.28;;;12.64;100.00
58955;BME280;45815;52.334;5.024;2023-03-13T09:08:22;99479.69;;;12.71;100.00
58955;BME280;45815;52.334;5.024;2023-03-13T09:10:54;99447.94;;;12.88;100.00
58955;BME280;45815;52.334;5.024;2023-03-13T09:13:20;99451.25;;;13.01;100.00
58955;BME280;45815;52.334;5.024;2023-03-13T09:15:53;99438.69;;;13.21;100.00
58955;BME280;45815;52.334;5.024;2023-03-13T09:18:18;99443.00;;;13.27;100.00
58955;BME280;45815;52.334;5.024;2023-03-13T09:20:44;99441.25;;;13.29;100.00
58955;BME280;45815;52.334;5.024;2023-03-13T09:23:09;99434.13;;;13.34;100.00
58955;BME280;45815;52.334;5.024;2023-03-13T09:25:37;99423.63;;;13.33;100.00
58955;BME280;45815;52.334;5.024;2023-03-13T09:28:02;99435.03;;;13.35;100.00
58955;BME280;45815;52.334;5.024;2023-03-13T09:30:28;99418.19;;;13.43;100.00
58955;BME280;45815;52.334;5.024;2023-03-13T09:32:53;99413.75;;;13.47;100.00
58955;BME280;45815;52.334;5.024;2023-03-13T09:35:18;99413.75;;;13.47;100.00
58955;BME280;45815;52.334;5.024;2023-03-13T09:37:44;99411.16;;;13.44;100.00
58955;BME280;45815;52.334;5.024;2023-03-13T09:40:13;99417.31;;;13.44;100.00
58955;BME280;45815;52.334;5.024;2023-03-13T09:42:45;99401.50;;;13.44;100.00
58955;BME280;45815;52.334;5.024;2023-03-13T09:45:40;99369.88;;;13.44;100.00
58955;BME280;45815;52.334;5.024;2023-03-13T09:48:18;99378.50;;;13.52;100.00
58955;BME280;45815;52.334;5.024;2023-03-13T09:54:00;99381.97;;;13.56;100.00
58955;BME280;45815;52.334;5.024;2023-03-13T09:56:45;99358.03;;;13.68;100.00
58955;BME280;45815;52.334;5.024;2023-03-13T10:01:42;99375.94;;;13.99;100.00
58955;BME280;45815;52.334;5.024;2023-03-13T10:06:55;99351.47;;;13.91;100.00
58955;BME280;45815;52.334;5.024;2023-03-13T10:09:31;99352.19;;;13.99;100.00
58955;BME280;45815;52.334;5.024;2023-03-13T10:14:47;99350.31;;;14.04;100.00
58955;BME280;45815;52.334;5.024;2023-03-13T10:17:26;99324.84;;;14.03;100.00
58955;BME280;45815;52.334;5.024;2023-03-13T10:22:45;99369.19;;;14.31;100.00
58955;BME280;45815;52.334;5.024;2023-03-13T10:25:32;99351.56;;;14.31;100.00
58955;BME280;45815;52.334;5.024;2023-03-13T10:27:58;99341.09;;;14.28;100.00
58955;BME280;45815;52.334;5.024;2023-03-13T10:30:28;99336.66;;;14.29;100.00
58955;BME280;45815;52.334;5.024;2023-03-13T10:35:42;99373.25;;;14.47;100.00
58955;BME280;45815;52.334;5.024;2023-03-13T10:38:17;99350.28;;;14.54;100.00
58955;BME280;45815;52.334;5.024;2023-03-13T10:40:43;99355.38;;;14.62;100.00
58955;BME280;45815;52.334;5.024;2023-03-13T10:43:20;99363.03;;;14.74;100.00
58955;BME280;45815;52.334;5.024;2023-03-13T10:45:45;99354.91;;;14.83;100.00
58955;BME280;45815;52.334;5.024;2023-03-13T10:50:41;99323.69;;;14.62;100.00
58955;BME280;45815;52.334;5.024;2023-03-13T10:55:44;99359.06;;;14.54;100.00
58955;BME280;45815;52.334;5.024;2023-03-13T10:58:17;99338.84;;;14.52;100.00
58955;BME280;45815;52.334;5.024;2023-03-13T11:00:43;99347.63;;;14.51;100.00
58955;BME280;45815;52.334;5.024;2023-03-13T11:03:30;99340.72;;;14.45;100.00
58955;BME280;45815;52.334;5.024;2023-03-13T11:06:02;99397.78;;;14.52;100.00
58955;BME280;45815;52.334;5.024;2023-03-13T11:08:33;99328.13;;;14.60;100.00
58955;BME280;45815;52.334;5.024;2023-03-13T11:11:04;99334.25;;;14.62;100.00
58955;BME280;45815;52.334;5.024;2023-03-13T11:13:41;99332.38;;;15.06;100.00
58955;BME280;45815;52.334;5.024;2023-03-13T11:16:12;99336.53;;;15.16;100.00
58955;BME280;45815;52.334;5.024;2023-03-13T11:18:54;99330.63;;;15.05;100.00
58955;BME280;45815;52.334;5.024;2023-03-13T11:21:42;99333.59;;;14.91;100.00
58955;BME280;45815;52.334;5.024;2023-03-13T11:24:39;99334.78;;;14.77;100.00
58955;BME280;45815;52.334;5.024;2023-03-13T11:27:13;99358.09;;;14.97;100.00
58955;BME280;45815;52.334;5.024;2023-03-13T11:32:53;99298.16;;;14.99;100.00
58955;BME280;45815;52.334;5.024;2023-03-13T11:38:01;99338.25;;;15.17;100.00
58955;BME280;45815;52.334;5.024;2023-03-13T11:46:45;99337.38;;;15.18;100.00
58955;BME280;45815;52.334;5.024;2023-03-13T11:52:08;99320.44;;;15.61;100.00
58955;BME280;45815;52.334;5.024;2023-03-13T11:54:51;99362.81;;;15.59;100.00
58955;BME280;45815;52.334;5.024;2023-03-13T11:57:30;99306.19;;;15.67;100.00
58955;BME280;45815;52.334;5.024;2023-03-13T12:05:37;99314.78;;;16.09;100.00
58955;BME280;45815;52.334;5.024;2023-03-13T12:08:16;99298.78;;;16.12;100.00
58955;BME280;45815;52.334;5.024;2023-03-13T12:11:16;99324.41;;;16.12;100.00
58955;BME280;45815;52.334;5.024;2023-03-13T12:13:59;99290.72;;;15.86;100.00
58955;BME280;45815;52.334;5.024;2023-03-13T12:16:40;99316.34;;;15.83;100.00
58955;BME280;45815;52.334;5.024;2023-03-13T12:19:11;99311.72;;;15.92;100.00
58955;BME280;45815;52.334;5.024;2023-03-13T12:21:52;99313.66;;;15.51;100.00
58955;BME280;45815;52.334;5.024;2023-03-13T12:24:30;99325.28;;;15.44;100.00
58955;BME280;45815;52.334;5.024;2023-03-13T12:27:10;99328.50;;;15.20;100.00
58955;BME280;45815;52.334;5.024;2023-03-13T12:35:33;99273.44;;;15.72;100.00
58955;BME280;45815;52.334;5.024;2023-03-13T12:38:14;99287.41;;;15.77;100.00
58955;BME280;45815;52.334;5.024;2023-03-13T12:43:42;99277.94;;;16.01;100.00
58955;BME280;45815;52.334;5.024;2023-03-13T12:49:05;99274.00;;;15.51;100.00
58955;BME280;45815;52.334;5.024;2023-03-13T12:59:52;99280.09;;;15.53;100.00
58955;BME280;45815;52.334;5.024;2023-03-13T13:02:22;99262.72;;;15.77;100.00
58955;BME280;45815;52.334;5.024;2023-03-13T13:04:50;99259.91;;;16.14;100.00
58955;BME280;45815;52.334;5.024;2023-03-13T13:07:24;99268.09;;;16.07;100.00
58955;BME280;45815;52.334;5.024;2023-03-13T13:12:26;99232.94;;;16.59;100.00
58955;BME280;45815;52.334;5.024;2023-03-13T13:17:48;99233.38;;;16.74;100.00
58955;BME280;45815;52.334;5.024;2023-03-13T13:20:31;99231.81;;;16.68;100.00
58955;BME280;45815;52.334;5.024;2023-03-13T13:25:43;99240.56;;;16.42;100.00
58955;BME280;45815;52.334;5.024;2023-03-13T13:30:39;99210.28;;;16.22;100.00
58955;BME280;45815;52.334;5.024;2023-03-13T13:35:43;99222.44;;;15.98;100.00
58955;BME280;45815;52.334;5.024;2023-03-13T13:43:31;99210.88;;;15.70;100.00
58955;BME280;45815;52.334;5.024;2023-03-13T13:46:30;99215.25;;;15.38;100.00
58955;BME280;45815;52.334;5.024;2023-03-13T13:52:16;99212.44;;;15.46;100.00
58955;BME280;45815;52.334;5.024;2023-03-13T13:54:32;99202.22;;;15.32;100.00
58955;BME280;45815;52.334;5.024;2023-03-13T13:56:59;99224.34;;;15.28;100.00
58955;BME280;45815;52.334;5.024;2023-03-13T13:59:38;99237.84;;;15.17;100.00
58955;BME280;45815;52.334;5.024;2023-03-13T14:04:36;99230.72;;;15.19;100.00
58955;BME280;45815;52.334;5.024;2023-03-13T14:07:05;99210.25;;;14.93;100.00
58955;BME280;45815;52.334;5.024;2023-03-13T14:12:33;99228.41;;;14.71;100.00
58955;BME280;45815;52.334;5.024;2023-03-13T14:15:32;99218.41;;;14.84;100.00
58955;BME280;45815;52.334;5.024;2023-03-13T14:18:20;99234.16;;;15.24;100.00
58955;BME280;45815;52.334;5.024;2023-03-13T14:20:55;99232.88;;;15.73;100.00
58955;BME280;45815;52.334;5.024;2023-03-13T14:23:35;99225.56;;;15.81;100.00
58955;BME280;45815;52.334;5.024;2023-03-13T14:26:16;99184.16;;;15.80;100.00
58955;BME280;45815;52.334;5.024;2023-03-13T14:28:47;99204.59;;;16.05;100.00
58955;BME280;45815;52.334;5.024;2023-03-13T14:31:28;99234.50;;;15.77;100.00
58955;BME280;45815;52.334;5.024;2023-03-13T14:33:56;99203.31;;;15.89;100.00
58955;BME280;45815;52.334;5.024;2023-03-13T14:36:22;99197.44;;;16.09;100.00
58955;BME280;45815;52.334;5.024;2023-03-13T14:38:52;99189.69;;;16.02;100.00
58955;BME280;45815;52.334;5.024;2023-03-13T14:41:26;99189.13;;;15.91;100.00
58955;BME280;45815;52.334;5.024;2023-03-13T14:43:53;99209.13;;;16.01;100.00
58955;BME280;45815;52.334;5.024;2023-03-13T14:48:47;99166.72;;;16.03;100.00
58955;BME280;45815;52.334;5.024;2023-03-13T14:51:20;99191.19;;;16.11;100.00
58955;BME280;45815;52.334;5.024;2023-03-13T14:56:18;99169.47;;;16.00;100.00